Terminal Aerodrome Forecast
Issued by NWS Cleveland, OH

Home | Current Version | Previous Version | Graphics & Text | Print | Product List | Glossary On
Versions: 1 2 3 4 5 6 7 8 9 10 11 12 13 14
470
FTUS41 KCLE 042337
TAFMFD
TAF
KMFD 042337Z 0500/0524 27006KT P6SM -SN SCT015 OVC025
      TEMPO 0500/0504 BKN015
     FM050600 27005KT P6SM SCT025
     FM051600 25005KT P6SM BKN050=

USA.gov is the U.S. government's official web portal to all federal, state and local government web resources and services.